createdAt,value
2023-04-16T19:05:39.401Z,90.70
2023-04-16T19:08:07.236Z,90.90
2023-04-16T19:10:35.100Z,90.80
2023-04-16T19:13:03.032Z,90.80
2023-04-16T19:15:32.126Z,90.80
2023-04-16T19:18:01.786Z,90.70
2023-04-16T19:20:29.870Z,90.60
2023-04-16T19:22:59.118Z,90.70
2023-04-16T19:25:27.237Z,90.60
2023-04-16T19:27:56.024Z,90.50
2023-04-16T19:30:23.929Z,90.50
2023-04-16T19:32:53.270Z,90.50
2023-04-16T19:35:23.045Z,90.40
2023-04-16T19:37:51.365Z,90.40
2023-04-16T19:40:20.812Z,90.40
2023-04-16T19:42:49.387Z,90.40
2023-04-16T19:45:18.281Z,90.30
2023-04-16T19:47:48.662Z,90.50
2023-04-16T19:50:16.758Z,90.60
2023-04-16T19:52:44.621Z,90.60
2023-04-16T19:55:12.653Z,90.50
2023-04-16T19:57:41.877Z,90.30
2023-04-16T20:00:12.042Z,90.60
2023-04-16T20:02:40.039Z,90.30
2023-04-16T20:05:08.778Z,90.40
2023-04-16T20:07:36.673Z,90.40
2023-04-16T20:10:04.875Z,90.70
2023-04-16T20:12:32.802Z,90.30
2023-04-16T20:15:02.024Z,90.30
2023-04-16T20:17:29.935Z,90.30
2023-04-16T20:20:00.735Z,90.30
2023-04-16T20:22:28.652Z,90.20
2023-04-16T20:24:56.555Z,90.20
2023-04-16T20:27:24.546Z,90.10
2023-04-16T20:29:52.754Z,90.20
2023-04-16T20:32:22.022Z,90.10
2023-04-16T20:34:49.917Z,90.00
2023-04-16T20:37:17.816Z,90.00
2023-04-16T20:39:46.682Z,90.00
2023-04-16T20:42:14.555Z,90.00
2023-04-16T20:44:42.567Z,90.00
2023-04-16T20:47:11.558Z,90.10
2023-04-16T20:49:46.913Z,90.10
2023-04-16T20:52:15.020Z,90.10
2023-04-16T20:54:43.137Z,90.20
2023-04-16T20:57:11.107Z,90.20
2023-04-16T20:59:38.958Z,90.10
2023-04-16T21:02:07.046Z,90.00
2023-04-16T21:04:35.132Z,90.20
2023-04-16T21:07:04.560Z,90.10
2023-04-16T21:09:32.515Z,90.10
2023-04-16T21:12:01.463Z,89.90
2023-04-16T21:14:29.405Z,89.90
2023-04-16T21:16:57.293Z,89.50
2023-04-16T21:19:25.295Z,89.60
2023-04-16T21:21:53.169Z,89.70
2023-04-16T21:24:22.417Z,90.00
2023-04-16T21:26:50.268Z,90.10
2023-04-16T21:29:18.106Z,90.00
2023-04-16T21:31:46.025Z,90.20
2023-04-16T21:34:13.959Z,90.20
2023-04-16T21:36:41.810Z,90.20
2023-04-16T21:39:10.983Z,90.20
2023-04-16T21:41:40.394Z,90.20
2023-04-16T21:44:08.222Z,90.20
2023-04-16T21:46:36.123Z,90.10
2023-04-16T21:49:04.004Z,90.10
2023-04-16T21:51:31.889Z,90.10
2023-04-16T21:54:00.384Z,90.00
2023-04-16T21:56:28.238Z,89.90
2023-04-16T21:58:57.468Z,89.80
